sensor_id;sensor_type;location;lat;lon;timestamp;P1;durP1;ratioP1;P2;durP2;ratioP2
10134;SDS011;5107;48.850;8.924;2022-08-25T00:01:46;2.80;;;2.60;;
10134;SDS011;5107;48.850;8.924;2022-08-25T00:04:15;2.35;;;2.22;;
10134;SDS011;5107;48.850;8.924;2022-08-25T00:06:46;3.00;;;2.75;;
10134;SDS011;5107;48.850;8.924;2022-08-25T00:09:15;2.80;;;2.50;;
10134;SDS011;5107;48.850;8.924;2022-08-25T00:11:45;3.67;;;2.63;;
10134;SDS011;5107;48.850;8.924;2022-08-25T00:14:15;2.92;;;2.58;;
10134;SDS011;5107;48.850;8.924;2022-08-25T00:16:44;3.70;;;2.80;;
10134;SDS011;5107;48.850;8.924;2022-08-25T00:19:13;2.50;;;2.30;;
10134;SDS011;5107;48.850;8.924;2022-08-25T00:21:46;3.25;;;2.72;;
10134;SDS011;5107;48.850;8.924;2022-08-25T00:24:14;2.72;;;2.53;;
10134;SDS011;5107;48.850;8.924;2022-08-25T00:26:44;2.80;;;2.60;;
10134;SDS011;5107;48.850;8.924;2022-08-25T00:29:14;3.00;;;2.80;;
10134;SDS011;5107;48.850;8.924;2022-08-25T00:31:42;3.03;;;2.80;;
10134;SDS011;5107;48.850;8.924;2022-08-25T00:34:12;2.50;;;2.30;;
10134;SDS011;5107;48.850;8.924;2022-08-25T00:36:45;2.97;;;2.60;;
10134;SDS011;5107;48.850;8.924;2022-08-25T00:39:15;7.00;;;2.50;;
10134;SDS011;5107;48.850;8.924;2022-08-25T00:41:45;2.80;;;2.60;;
10134;SDS011;5107;48.850;8.924;2022-08-25T00:44:15;3.55;;;2.50;;
10134;SDS011;5107;48.850;8.924;2022-08-25T00:46:43;3.63;;;2.88;;
10134;SDS011;5107;48.850;8.924;2022-08-25T00:49:13;3.22;;;2.72;;
10134;SDS011;5107;48.850;8.924;2022-08-25T00:51:47;3.58;;;2.63;;
10134;SDS011;5107;48.850;8.924;2022-08-25T00:54:19;3.20;;;2.90;;
10134;SDS011;5107;48.850;8.924;2022-08-25T00:56:51;2.70;;;2.50;;
10134;SDS011;5107;48.850;8.924;2022-08-25T00:59:19;3.00;;;2.80;;
10134;SDS011;5107;48.850;8.924;2022-08-25T01:01:49;3.00;;;2.70;;
10134;SDS011;5107;48.850;8.924;2022-08-25T01:04:16;2.90;;;2.70;;
10134;SDS011;5107;48.850;8.924;2022-08-25T01:06:44;3.10;;;2.88;;
10134;SDS011;5107;48.850;8.924;2022-08-25T01:09:13;3.05;;;2.75;;
10134;SDS011;5107;48.850;8.924;2022-08-25T01:11:42;2.85;;;2.65;;
10134;SDS011;5107;48.850;8.924;2022-08-25T01:14:10;3.17;;;2.85;;
10134;SDS011;5107;48.850;8.924;2022-08-25T01:16:40;3.28;;;2.97;;
10134;SDS011;5107;48.850;8.924;2022-08-25T01:19:09;3.13;;;2.90;;
10134;SDS011;5107;48.850;8.924;2022-08-25T01:21:41;2.92;;;2.72;;
10134;SDS011;5107;48.850;8.924;2022-08-25T01:24:14;2.85;;;2.65;;
10134;SDS011;5107;48.850;8.924;2022-08-25T01:26:55;2.90;;;2.70;;
10134;SDS011;5107;48.850;8.924;2022-08-25T01:29:23;3.25;;;2.95;;
10134;SDS011;5107;48.850;8.924;2022-08-25T01:31:51;2.92;;;2.72;;
10134;SDS011;5107;48.850;8.924;2022-08-25T01:34:22;3.20;;;2.88;;
10134;SDS011;5107;48.850;8.924;2022-08-25T01:36:53;2.90;;;2.70;;
10134;SDS011;5107;48.850;8.924;2022-08-25T01:39:22;3.20;;;2.90;;
10134;SDS011;5107;48.850;8.924;2022-08-25T01:41:57;3.50;;;3.20;;
10134;SDS011;5107;48.850;8.924;2022-08-25T01:44:39;3.37;;;3.07;;
10134;SDS011;5107;48.850;8.924;2022-08-25T01:47:08;2.93;;;2.70;;
10134;SDS011;5107;48.850;8.924;2022-08-25T01:49:37;3.20;;;2.90;;
10134;SDS011;5107;48.850;8.924;2022-08-25T01:52:10;3.20;;;2.90;;
10134;SDS011;5107;48.850;8.924;2022-08-25T01:54:42;3.97;;;2.80;;
10134;SDS011;5107;48.850;8.924;2022-08-25T01:57:09;3.30;;;3.00;;
10134;SDS011;5107;48.850;8.924;2022-08-25T01:59:36;3.30;;;3.00;;
10134;SDS011;5107;48.850;8.924;2022-08-25T02:02:04;2.90;;;2.70;;
10134;SDS011;5107;48.850;8.924;2022-08-25T02:04:31;3.40;;;3.10;;
10134;SDS011;5107;48.850;8.924;2022-08-25T02:06:59;3.63;;;3.33;;
10134;SDS011;5107;48.850;8.924;2022-08-25T02:09:30;5.37;;;3.80;;
10134;SDS011;5107;48.850;8.924;2022-08-25T02:11:57;3.77;;;3.47;;
10134;SDS011;5107;48.850;8.924;2022-08-25T02:14:24;4.33;;;3.40;;
10134;SDS011;5107;48.850;8.924;2022-08-25T02:16:53;3.10;;;2.80;;
10134;SDS011;5107;48.850;8.924;2022-08-25T02:19:21;3.43;;;3.13;;
10134;SDS011;5107;48.850;8.924;2022-08-25T02:21:50;3.37;;;3.00;;
10134;SDS011;5107;48.850;8.924;2022-08-25T02:24:17;3.50;;;3.20;;
10134;SDS011;5107;48.850;8.924;2022-08-25T02:26:46;3.20;;;2.90;;
10134;SDS011;5107;48.850;8.924;2022-08-25T02:29:14;3.30;;;3.00;;
10134;SDS011;5107;48.850;8.924;2022-08-25T02:31:42;3.50;;;3.20;;
10134;SDS011;5107;48.850;8.924;2022-08-25T02:34:10;3.30;;;3.10;;
10134;SDS011;5107;48.850;8.924;2022-08-25T02:36:39;3.30;;;3.00;;
10134;SDS011;5107;48.850;8.924;2022-08-25T02:39:07;3.50;;;3.20;;
10134;SDS011;5107;48.850;8.924;2022-08-25T02:41:35;3.40;;;3.10;;
10134;SDS011;5107;48.850;8.924;2022-08-25T02:44:05;3.33;;;3.03;;
10134;SDS011;5107;48.850;8.924;2022-08-25T02:46:33;3.30;;;3.07;;
10134;SDS011;5107;48.850;8.924;2022-08-25T02:49:00;3.57;;;3.10;;
10134;SDS011;5107;48.850;8.924;2022-08-25T02:51:28;3.50;;;3.20;;
10134;SDS011;5107;48.850;8.924;2022-08-25T02:53:56;3.73;;;3.10;;
10134;SDS011;5107;48.850;8.924;2022-08-25T02:56:26;3.43;;;3.13;;
10134;SDS011;5107;48.850;8.924;2022-08-25T02:58:54;4.20;;;3.80;;
10134;SDS011;5107;48.850;8.924;2022-08-25T03:01:23;3.43;;;3.13;;
10134;SDS011;5107;48.850;8.924;2022-08-25T03:03:50;3.63;;;3.30;;
10134;SDS011;5107;48.850;8.924;2022-08-25T03:06:18;4.37;;;3.50;;
10134;SDS011;5107;48.850;8.924;2022-08-25T03:08:48;3.40;;;3.10;;
10134;SDS011;5107;48.850;8.924;2022-08-25T03:11:16;4.13;;;3.37;;
10134;SDS011;5107;48.850;8.924;2022-08-25T03:13:44;3.60;;;3.30;;
10134;SDS011;5107;48.850;8.924;2022-08-25T03:16:12;3.43;;;3.13;;
10134;SDS011;5107;48.850;8.924;2022-08-25T03:18:41;3.67;;;3.37;;
10134;SDS011;5107;48.850;8.924;2022-08-25T03:21:09;3.40;;;3.10;;
10134;SDS011;5107;48.850;8.924;2022-08-25T03:23:37;3.43;;;3.13;;
10134;SDS011;5107;48.850;8.924;2022-08-25T03:26:06;4.67;;;3.23;;
10134;SDS011;5107;48.850;8.924;2022-08-25T03:28:50;3.57;;;3.27;;
10134;SDS011;5107;48.850;8.924;2022-08-25T03:31:19;3.73;;;3.23;;
10134;SDS011;5107;48.850;8.924;2022-08-25T03:33:48;3.37;;;3.07;;
10134;SDS011;5107;48.850;8.924;2022-08-25T03:36:15;4.33;;;3.60;;
10134;SDS011;5107;48.850;8.924;2022-08-25T03:38:42;3.97;;;3.67;;
10134;SDS011;5107;48.850;8.924;2022-08-25T03:41:10;4.47;;;3.37;;
10134;SDS011;5107;48.850;8.924;2022-08-25T03:43:40;4.70;;;3.80;;
10134;SDS011;5107;48.850;8.924;2022-08-25T03:46:14;5.23;;;4.10;;
10134;SDS011;5107;48.850;8.924;2022-08-25T03:48:44;5.40;;;3.90;;
10134;SDS011;5107;48.850;8.924;2022-08-25T03:51:17;6.47;;;4.47;;
10134;SDS011;5107;48.850;8.924;2022-08-25T03:53:46;4.20;;;3.80;;
10134;SDS011;5107;48.850;8.924;2022-08-25T03:56:13;5.03;;;4.20;;
10134;SDS011;5107;48.850;8.924;2022-08-25T03:58:40;4.47;;;3.90;;
10134;SDS011;5107;48.850;8.924;2022-08-25T04:01:08;4.17;;;3.73;;
10134;SDS011;5107;48.850;8.924;2022-08-25T04:03:35;5.20;;;4.13;;
10134;SDS011;5107;48.850;8.924;2022-08-25T04:06:02;4.70;;;4.30;;
10134;SDS011;5107;48.850;8.924;2022-08-25T04:08:33;4.73;;;4.23;;
10134;SDS011;5107;48.850;8.924;2022-08-25T04:11:04;4.37;;;3.97;;
10134;SDS011;5107;48.850;8.924;2022-08-25T04:13:33;4.27;;;3.70;;
10134;SDS011;5107;48.850;8.924;2022-08-25T04:16:01;4.13;;;3.77;;
10134;SDS011;5107;48.850;8.924;2022-08-25T04:18:29;4.10;;;3.70;;
10134;SDS011;5107;48.850;8.924;2022-08-25T04:21:01;4.10;;;3.70;;
10134;SDS011;5107;48.850;8.924;2022-08-25T04:23:30;4.57;;;4.07;;
10134;SDS011;5107;48.850;8.924;2022-08-25T04:25:59;5.13;;;3.90;;
10134;SDS011;5107;48.850;8.924;2022-08-25T04:28:27;4.07;;;3.67;;
10134;SDS011;5107;48.850;8.924;2022-08-25T04:30:54;4.57;;;4.17;;
10134;SDS011;5107;48.850;8.924;2022-08-25T04:33:21;5.53;;;3.90;;
10134;SDS011;5107;48.850;8.924;2022-08-25T04:35:48;4.73;;;4.00;;
10134;SDS011;5107;48.850;8.924;2022-08-25T04:38:15;4.80;;;3.70;;
10134;SDS011;5107;48.850;8.924;2022-08-25T04:40:43;4.80;;;3.90;;
10134;SDS011;5107;48.850;8.924;2022-08-25T04:43:11;4.93;;;3.77;;
10134;SDS011;5107;48.850;8.924;2022-08-25T04:45:39;4.83;;;3.73;;
10134;SDS011;5107;48.850;8.924;2022-08-25T04:48:07;4.80;;;4.13;;
10134;SDS011;5107;48.850;8.924;2022-08-25T04:50:36;3.97;;;3.57;;
10134;SDS011;5107;48.850;8.924;2022-08-25T04:53:04;4.20;;;3.80;;
10134;SDS011;5107;48.850;8.924;2022-08-25T04:55:31;3.97;;;3.67;;
10134;SDS011;5107;48.850;8.924;2022-08-25T04:58:04;4.90;;;4.40;;
10134;SDS011;5107;48.850;8.924;2022-08-25T05:00:34;4.23;;;3.83;;
10134;SDS011;5107;48.850;8.924;2022-08-25T05:03:02;6.20;;;3.50;;
10134;SDS011;5107;48.850;8.924;2022-08-25T05:05:30;4.50;;;3.93;;
10134;SDS011;5107;48.850;8.924;2022-08-25T05:07:57;3.90;;;3.60;;
10134;SDS011;5107;48.850;8.924;2022-08-25T05:10:25;4.22;;;3.83;;
10134;SDS011;5107;48.850;8.924;2022-08-25T05:12:52;4.70;;;3.90;;
10134;SDS011;5107;48.850;8.924;2022-08-25T05:15:19;3.65;;;3.35;;
10134;SDS011;5107;48.850;8.924;2022-08-25T05:18:01;17.83;;;11.93;;
10134;SDS011;5107;48.850;8.924;2022-08-25T05:20:29;6.55;;;4.45;;
10134;SDS011;5107;48.850;8.924;2022-08-25T05:22:56;5.07;;;3.97;;
10134;SDS011;5107;48.850;8.924;2022-08-25T05:25:24;4.65;;;4.20;;
10134;SDS011;5107;48.850;8.924;2022-08-25T05:27:51;4.38;;;3.90;;
10134;SDS011;5107;48.850;8.924;2022-08-25T05:30:18;4.40;;;4.00;;
10134;SDS011;5107;48.850;8.924;2022-08-25T05:32:45;4.45;;;4.03;;
10134;SDS011;5107;48.850;8.924;2022-08-25T05:35:14;3.90;;;3.60;;
10134;SDS011;5107;48.850;8.924;2022-08-25T05:37:41;4.35;;;3.95;;
10134;SDS011;5107;48.850;8.924;2022-08-25T05:40:08;4.55;;;3.80;;
10134;SDS011;5107;48.850;8.924;2022-08-25T05:42:36;4.57;;;4.13;;
10134;SDS011;5107;48.850;8.924;2022-08-25T05:45:03;4.30;;;3.90;;
10134;SDS011;5107;48.850;8.924;2022-08-25T05:47:31;4.93;;;4.20;;
10134;SDS011;5107;48.850;8.924;2022-08-25T05:49:59;5.20;;;4.70;;
10134;SDS011;5107;48.850;8.924;2022-08-25T05:52:27;5.60;;;4.47;;
10134;SDS011;5107;48.850;8.924;2022-08-25T05:54:55;5.30;;;4.80;;
10134;SDS011;5107;48.850;8.924;2022-08-25T05:57:22;5.60;;;4.57;;
10134;SDS011;5107;48.850;8.924;2022-08-25T05:59:49;5.45;;;4.70;;
10134;SDS011;5107;48.850;8.924;2022-08-25T06:02:16;4.88;;;4.45;;
10134;SDS011;5107;48.850;8.924;2022-08-25T06:05:01;5.10;;;4.60;;
10134;SDS011;5107;48.850;8.924;2022-08-25T06:07:29;5.32;;;4.82;;
10134;SDS011;5107;48.850;8.924;2022-08-25T06:09:57;7.03;;;5.00;;
10134;SDS011;5107;48.850;8.924;2022-08-25T06:12:25;8.30;;;5.05;;
10134;SDS011;5107;48.850;8.924;2022-08-25T06:14:53;4.20;;;3.80;;
10134;SDS011;5107;48.850;8.924;2022-08-25T06:17:20;5.22;;;4.82;;
10134;SDS011;5107;48.850;8.924;2022-08-25T06:19:47;5.80;;;5.20;;
10134;SDS011;5107;48.850;8.924;2022-08-25T06:22:14;5.25;;;4.85;;
10134;SDS011;5107;48.850;8.924;2022-08-25T06:24:43;5.30;;;4.80;;
10134;SDS011;5107;48.850;8.924;2022-08-25T06:27:10;5.28;;;4.78;;
10134;SDS011;5107;48.850;8.924;2022-08-25T06:29:38;4.93;;;4.53;;
10134;SDS011;5107;48.850;8.924;2022-08-25T06:32:05;5.70;;;5.07;;
10134;SDS011;5107;48.850;8.924;2022-08-25T06:34:33;6.72;;;4.80;;
10134;SDS011;5107;48.850;8.924;2022-08-25T06:37:00;5.70;;;5.20;;
10134;SDS011;5107;48.850;8.924;2022-08-25T06:39:27;6.03;;;4.82;;
10134;SDS011;5107;48.850;8.924;2022-08-25T06:41:55;5.05;;;4.65;;
10134;SDS011;5107;48.850;8.924;2022-08-25T06:44:24;5.53;;;4.88;;
10134;SDS011;5107;48.850;8.924;2022-08-25T06:46:52;6.78;;;5.20;;
10134;SDS011;5107;48.850;8.924;2022-08-25T06:49:19;4.97;;;4.50;;
10134;SDS011;5107;48.850;8.924;2022-08-25T06:51:47;6.50;;;4.80;;
10134;SDS011;5107;48.850;8.924;2022-08-25T06:54:14;5.72;;;5.18;;
10134;SDS011;5107;48.850;8.924;2022-08-25T06:56:41;5.10;;;4.70;;
10134;SDS011;5107;48.850;8.924;2022-08-25T06:59:10;5.50;;;5.00;;
10134;SDS011;5107;48.850;8.924;2022-08-25T07:01:37;5.93;;;5.05;;
10134;SDS011;5107;48.850;8.924;2022-08-25T07:04:05;5.55;;;4.93;;
10134;SDS011;5107;48.850;8.924;2022-08-25T07:06:32;7.40;;;5.40;;
10134;SDS011;5107;48.850;8.924;2022-08-25T07:09:00;5.22;;;4.78;;
10134;SDS011;5107;48.850;8.924;2022-08-25T07:11:30;5.63;;;5.05;;
10134;SDS011;5107;48.850;8.924;2022-08-25T07:13:58;5.80;;;5.30;;
10134;SDS011;5107;48.850;8.924;2022-08-25T07:16:28;5.60;;;5.10;;
10134;SDS011;5107;48.850;8.924;2022-08-25T07:18:56;5.60;;;5.00;;
10134;SDS011;5107;48.850;8.924;2022-08-25T07:21:25;8.27;;;5.65;;
10134;SDS011;5107;48.850;8.924;2022-08-25T07:23:55;6.88;;;5.45;;
10134;SDS011;5107;48.850;8.924;2022-08-25T07:26:25;7.90;;;5.30;;
10134;SDS011;5107;48.850;8.924;2022-08-25T07:28:55;5.47;;;4.97;;
10134;SDS011;5107;48.850;8.924;2022-08-25T07:31:23;7.03;;;5.15;;
10134;SDS011;5107;48.850;8.924;2022-08-25T07:33:52;6.63;;;5.50;;
10134;SDS011;5107;48.850;8.924;2022-08-25T07:36:37;12.07;;;6.10;;
10134;SDS011;5107;48.850;8.924;2022-08-25T07:39:04;6.18;;;5.38;;
10134;SDS011;5107;48.850;8.924;2022-08-25T07:41:34;5.40;;;4.85;;
10134;SDS011;5107;48.850;8.924;2022-08-25T07:44:03;6.90;;;5.38;;
10134;SDS011;5107;48.850;8.924;2022-08-25T07:46:31;7.15;;;5.28;;
10134;SDS011;5107;48.850;8.924;2022-08-25T07:49:00;6.15;;;5.55;;
10134;SDS011;5107;48.850;8.924;2022-08-25T07:51:27;6.40;;;4.93;;
10134;SDS011;5107;48.850;8.924;2022-08-25T07:53:54;6.32;;;5.40;;
10134;SDS011;5107;48.850;8.924;2022-08-25T07:56:21;6.38;;;5.55;;
10134;SDS011;5107;48.850;8.924;2022-08-25T07:58:48;5.28;;;4.78;;
10134;SDS011;5107;48.850;8.924;2022-08-25T08:01:16;7.45;;;5.05;;
10134;SDS011;5107;48.850;8.924;2022-08-25T08:03:46;7.38;;;5.28;;
10134;SDS011;5107;48.850;8.924;2022-08-25T08:06:17;6.15;;;5.32;;
10134;SDS011;5107;48.850;8.924;2022-08-25T08:08:47;5.55;;;4.50;;
10134;SDS011;5107;48.850;8.924;2022-08-25T08:11:18;5.25;;;4.75;;
10134;SDS011;5107;48.850;8.924;2022-08-25T08:13:48;6.22;;;5.60;;
10134;SDS011;5107;48.850;8.924;2022-08-25T08:16:16;7.35;;;4.97;;
10134;SDS011;5107;48.850;8.924;2022-08-25T08:18:45;5.05;;;4.65;;
10134;SDS011;5107;48.850;8.924;2022-08-25T08:21:13;5.57;;;5.00;;
10134;SDS011;5107;48.850;8.924;2022-08-25T08:23:44;6.45;;;5.63;;
10134;SDS011;5107;48.850;8.924;2022-08-25T08:26:12;5.50;;;4.40;;
10134;SDS011;5107;48.850;8.924;2022-08-25T08:28:39;5.75;;;5.25;;
10134;SDS011;5107;48.850;8.924;2022-08-25T08:31:07;6.30;;;5.32;;
10134;SDS011;5107;48.850;8.924;2022-08-25T08:33:34;6.43;;;4.82;;
10134;SDS011;5107;48.850;8.924;2022-08-25T08:36:03;5.47;;;4.97;;
10134;SDS011;5107;48.850;8.924;2022-08-25T08:38:35;5.10;;;4.70;;
10134;SDS011;5107;48.850;8.924;2022-08-25T08:41:19;6.10;;;5.15;;
10134;SDS011;5107;48.850;8.924;2022-08-25T08:44:25;7.05;;;4.80;;
10134;SDS011;5107;48.850;8.924;2022-08-25T08:47:07;5.63;;;4.55;;
10134;SDS011;5107;48.850;8.924;2022-08-25T08:49:47;5.18;;;4.43;;
10134;SDS011;5107;48.850;8.924;2022-08-25T08:52:23;5.63;;;4.97;;
10134;SDS011;5107;48.850;8.924;2022-08-25T08:55:08;6.53;;;4.90;;
10134;SDS011;5107;48.850;8.924;2022-08-25T08:57:47;5.13;;;4.63;;
10134;SDS011;5107;48.850;8.924;2022-08-25T09:00:20;5.10;;;4.70;;
10134;SDS011;5107;48.850;8.924;2022-08-25T09:02:48;6.03;;;4.82;;
10134;SDS011;5107;48.850;8.924;2022-08-25T09:05:21;5.15;;;4.70;;
10134;SDS011;5107;48.850;8.924;2022-08-25T09:07:53;5.65;;;5.15;;
10134;SDS011;5107;48.850;8.924;2022-08-25T09:10:27;9.32;;;5.28;;
10134;SDS011;5107;48.850;8.924;2022-08-25T09:13:08;5.95;;;4.68;;
10134;SDS011;5107;48.850;8.924;2022-08-25T09:15:47;6.60;;;4.85;;
10134;SDS011;5107;48.850;8.924;2022-08-25T09:18:41;5.15;;;4.65;;
10134;SDS011;5107;48.850;8.924;2022-08-25T09:21:19;5.63;;;4.82;;
10134;SDS011;5107;48.850;8.924;2022-08-25T09:24:12;5.60;;;5.10;;
10134;SDS011;5107;48.850;8.924;2022-08-25T09:27:01;5.15;;;4.65;;
10134;SDS011;5107;48.850;8.924;2022-08-25T09:29:41;6.20;;;4.78;;
10134;SDS011;5107;48.850;8.924;2022-08-25T09:32:23;4.85;;;4.43;;
10134;SDS011;5107;48.850;8.924;2022-08-25T09:34:52;5.30;;;4.75;;
10134;SDS011;5107;48.850;8.924;2022-08-25T09:37:21;5.63;;;5.13;;
10134;SDS011;5107;48.850;8.924;2022-08-25T09:39:49;5.40;;;4.88;;
10134;SDS011;5107;48.850;8.924;2022-08-25T09:42:18;22.48;;;7.00;;
10134;SDS011;5107;48.850;8.924;2022-08-25T09:44:46;6.95;;;5.55;;
10134;SDS011;5107;48.850;8.924;2022-08-25T09:47:21;5.60;;;5.10;;
10134;SDS011;5107;48.850;8.924;2022-08-25T09:49:55;5.43;;;4.93;;
10134;SDS011;5107;48.850;8.924;2022-08-25T09:52:28;6.78;;;4.55;;
10134;SDS011;5107;48.850;8.924;2022-08-25T09:55:00;5.32;;;4.80;;
10134;SDS011;5107;48.850;8.924;2022-08-25T09:57:53;5.93;;;5.38;;
10134;SDS011;5107;48.850;8.924;2022-08-25T10:00:24;5.70;;;5.20;;
10134;SDS011;5107;48.850;8.924;2022-08-25T10:03:09;6.43;;;5.30;;
10134;SDS011;5107;48.850;8.924;2022-08-25T10:05:46;5.40;;;4.68;;
10134;SDS011;5107;48.850;8.924;2022-08-25T10:08:29;6.50;;;5.10;;
10134;SDS011;5107;48.850;8.924;2022-08-25T10:11:00;5.47;;;4.93;;
10134;SDS011;5107;48.850;8.924;2022-08-25T10:13:36;6.38;;;4.85;;
10134;SDS011;5107;48.850;8.924;2022-08-25T10:16:09;5.15;;;4.65;;
10134;SDS011;5107;48.850;8.924;2022-08-25T10:18:52;4.95;;;4.40;;
10134;SDS011;5107;48.850;8.924;2022-08-25T10:21:29;4.97;;;4.07;;
10134;SDS011;5107;48.850;8.924;2022-08-25T10:23:56;6.35;;;4.60;;
10134;SDS011;5107;48.850;8.924;2022-08-25T10:26:29;5.25;;;4.75;;
10134;SDS011;5107;48.850;8.924;2022-08-25T10:29:12;4.90;;;4.50;;
10134;SDS011;5107;48.850;8.924;2022-08-25T10:31:58;4.90;;;4.40;;
10134;SDS011;5107;48.850;8.924;2022-08-25T10:34:38;4.80;;;4.40;;
10134;SDS011;5107;48.850;8.924;2022-08-25T10:37:14;4.82;;;4.30;;
10134;SDS011;5107;48.850;8.924;2022-08-25T10:39:55;4.47;;;4.07;;
10134;SDS011;5107;48.850;8.924;2022-08-25T10:42:37;4.60;;;4.20;;
10134;SDS011;5107;48.850;8.924;2022-08-25T10:45:14;4.75;;;4.35;;
10134;SDS011;5107;48.850;8.924;2022-08-25T10:48:07;4.53;;;4.13;;
10134;SDS011;5107;48.850;8.924;2022-08-25T10:51:11;7.05;;;4.50;;
10134;SDS011;5107;48.850;8.924;2022-08-25T10:53:59;4.90;;;3.80;;
10134;SDS011;5107;48.850;8.924;2022-08-25T10:56:36;5.10;;;4.22;;
10134;SDS011;5107;48.850;8.924;2022-08-25T10:59:18;4.57;;;4.18;;
10134;SDS011;5107;48.850;8.924;2022-08-25T11:02:10;4.15;;;3.85;;
10134;SDS011;5107;48.850;8.924;2022-08-25T11:05:08;4.35;;;3.90;;
10134;SDS011;5107;48.850;8.924;2022-08-25T11:07:42;4.03;;;3.72;;
10134;SDS011;5107;48.850;8.924;2022-08-25T11:10:14;5.80;;;4.07;;
10134;SDS011;5107;48.850;8.924;2022-08-25T11:12:49;4.63;;;4.22;;
10134;SDS011;5107;48.850;8.924;2022-08-25T11:15:22;4.78;;;4.38;;
10134;SDS011;5107;48.850;8.924;2022-08-25T11:17:56;4.60;;;4.20;;
10134;SDS011;5107;48.850;8.924;2022-08-25T11:20:27;5.72;;;4.38;;
10134;SDS011;5107;48.850;8.924;2022-08-25T11:23:05;4.40;;;4.00;;
10134;SDS011;5107;48.850;8.924;2022-08-25T11:25:39;4.60;;;4.20;;
10134;SDS011;5107;48.850;8.924;2022-08-25T11:28:10;4.30;;;3.90;;
10134;SDS011;5107;48.850;8.924;2022-08-25T11:30:43;5.10;;;4.35;;
10134;SDS011;5107;48.850;8.924;2022-08-25T11:33:12;4.57;;;4.18;;
10134;SDS011;5107;48.850;8.924;2022-08-25T11:35:42;6.40;;;4.20;;
10134;SDS011;5107;48.850;8.924;2022-08-25T11:38:22;4.50;;;4.10;;
10134;SDS011;5107;48.850;8.924;2022-08-25T11:41:04;4.90;;;4.50;;
10134;SDS011;5107;48.850;8.924;2022-08-25T11:46:55;4.55;;;4.15;;
10134;SDS011;5107;48.850;8.924;2022-08-25T11:49:47;4.68;;;4.25;;
10134;SDS011;5107;48.850;8.924;2022-08-25T11:55:14;5.10;;;4.63;;
10134;SDS011;5107;48.850;8.924;2022-08-25T11:57:44;4.93;;;4.43;;
10134;SDS011;5107;48.850;8.924;2022-08-25T12:00:18;4.90;;;4.50;;
10134;SDS011;5107;48.850;8.924;2022-08-25T12:06:18;4.65;;;4.18;;
10134;SDS011;5107;48.850;8.924;2022-08-25T12:11:54;5.22;;;4.00;;
10134;SDS011;5107;48.850;8.924;2022-08-25T12:17:17;4.30;;;3.90;;
10134;SDS011;5107;48.850;8.924;2022-08-25T12:19:52;4.10;;;3.80;;
10134;SDS011;5107;48.850;8.924;2022-08-25T12:22:43;4.35;;;3.97;;
10134;SDS011;5107;48.850;8.924;2022-08-25T12:25:28;4.25;;;3.72;;
10134;SDS011;5107;48.850;8.924;2022-08-25T12:28:16;4.25;;;3.90;;
10134;SDS011;5107;48.850;8.924;2022-08-25T12:31:02;5.65;;;3.80;;
10134;SDS011;5107;48.850;8.924;2022-08-25T12:33:45;4.68;;;4.00;;
10134;SDS011;5107;48.850;8.924;2022-08-25T12:36:31;4.43;;;4.10;;
10134;SDS011;5107;48.850;8.924;2022-08-25T12:39:08;4.55;;;4.15;;
10134;SDS011;5107;48.850;8.924;2022-08-25T12:41:52;4.28;;;3.90;;
10134;SDS011;5107;48.850;8.924;2022-08-25T12:47:23;4.07;;;3.72;;
10134;SDS011;5107;48.850;8.924;2022-08-25T12:52:58;3.75;;;3.38;;
10134;SDS011;5107;48.850;8.924;2022-08-25T12:55:39;4.00;;;3.67;;
10134;SDS011;5107;48.850;8.924;2022-08-25T12:58:14;4.85;;;4.30;;
10134;SDS011;5107;48.850;8.924;2022-08-25T13:00:53;4.03;;;3.72;;
10134;SDS011;5107;48.850;8.924;2022-08-25T13:03:47;4.25;;;3.95;;
10134;SDS011;5107;48.850;8.924;2022-08-25T13:06:54;4.25;;;3.80;;
10134;SDS011;5107;48.850;8.924;2022-08-25T13:09:48;4.82;;;3.97;;
10134;SDS011;5107;48.850;8.924;2022-08-25T13:12:51;5.38;;;4.03;;
10134;SDS011;5107;48.850;8.924;2022-08-25T13:15:33;4.03;;;3.67;;
10134;SDS011;5107;48.850;8.924;2022-08-25T13:18:13;4.00;;;3.70;;
10134;SDS011;5107;48.850;8.924;2022-08-25T13:20:47;3.90;;;3.60;;
10134;SDS011;5107;48.850;8.924;2022-08-25T13:23:19;4.50;;;3.90;;
10134;SDS011;5107;48.850;8.924;2022-08-25T13:25:53;4.40;;;3.90;;
10134;SDS011;5107;48.850;8.924;2022-08-25T13:28:27;4.60;;;3.60;;
10134;SDS011;5107;48.850;8.924;2022-08-25T13:31:04;3.58;;;3.28;;
10134;SDS011;5107;48.850;8.924;2022-08-25T13:33:34;4.28;;;3.88;;
10134;SDS011;5107;48.850;8.924;2022-08-25T13:36:02;3.60;;;3.30;;
10134;SDS011;5107;48.850;8.924;2022-08-25T13:38:48;3.65;;;3.38;;
10134;SDS011;5107;48.850;8.924;2022-08-25T13:41:17;3.90;;;3.50;;
10134;SDS011;5107;48.850;8.924;2022-08-25T13:43:50;3.85;;;3.53;;
10134;SDS011;5107;48.850;8.924;2022-08-25T13:46:19;3.80;;;3.50;;
10134;SDS011;5107;48.850;8.924;2022-08-25T13:48:47;3.28;;;3.08;;
10134;SDS011;5107;48.850;8.924;2022-08-25T13:51:19;3.75;;;3.45;;
10134;SDS011;5107;48.850;8.924;2022-08-25T13:53:52;3.67;;;3.35;;
10134;SDS011;5107;48.850;8.924;2022-08-25T13:56:22;3.47;;;3.17;;
10134;SDS011;5107;48.850;8.924;2022-08-25T13:58:56;3.70;;;3.35;;
10134;SDS011;5107;48.850;8.924;2022-08-25T14:01:26;3.53;;;3.22;;
10134;SDS011;5107;48.850;8.924;2022-08-25T14:03:57;3.30;;;3.10;;
10134;SDS011;5107;48.850;8.924;2022-08-25T14:07:07;4.22;;;3.50;;
10134;SDS011;5107;48.850;8.924;2022-08-25T14:09:44;3.65;;;3.35;;
10134;SDS011;5107;48.850;8.924;2022-08-25T14:12:26;3.70;;;3.40;;
10134;SDS011;5107;48.850;8.924;2022-08-25T14:15:09;3.30;;;3.10;;
10134;SDS011;5107;48.850;8.924;2022-08-25T14:17:59;3.30;;;3.10;;
10134;SDS011;5107;48.850;8.924;2022-08-25T14:20:32;3.33;;;3.08;;
10134;SDS011;5107;48.850;8.924;2022-08-25T14:23:04;3.35;;;3.10;;
10134;SDS011;5107;48.850;8.924;2022-08-25T14:25:37;3.50;;;3.20;;
10134;SDS011;5107;48.850;8.924;2022-08-25T14:28:05;3.88;;;3.47;;
10134;SDS011;5107;48.850;8.924;2022-08-25T14:30:39;3.83;;;3.53;;
10134;SDS011;5107;48.850;8.924;2022-08-25T14:33:11;3.30;;;3.08;;
10134;SDS011;5107;48.850;8.924;2022-08-25T14:35:41;3.20;;;3.00;;
10134;SDS011;5107;48.850;8.924;2022-08-25T14:38:11;3.20;;;3.00;;
10134;SDS011;5107;48.850;8.924;2022-08-25T14:40:40;3.85;;;3.30;;
10134;SDS011;5107;48.850;8.924;2022-08-25T14:43:07;3.00;;;2.80;;
10134;SDS011;5107;48.850;8.924;2022-08-25T14:45:34;3.42;;;3.13;;
10134;SDS011;5107;48.850;8.924;2022-08-25T14:48:06;3.25;;;3.05;;
10134;SDS011;5107;48.850;8.924;2022-08-25T14:50:38;3.80;;;3.28;;
10134;SDS011;5107;48.850;8.924;2022-08-25T14:53:07;3.83;;;3.03;;
10134;SDS011;5107;48.850;8.924;2022-08-25T14:55:35;3.40;;;3.10;;
10134;SDS011;5107;48.850;8.924;2022-08-25T14:58:03;2.88;;;2.67;;
10134;SDS011;5107;48.850;8.924;2022-08-25T15:00:30;3.30;;;3.03;;
10134;SDS011;5107;48.850;8.924;2022-08-25T15:02:57;3.35;;;3.05;;
10134;SDS011;5107;48.850;8.924;2022-08-25T15:05:24;2.88;;;2.67;;
10134;SDS011;5107;48.850;8.924;2022-08-25T15:07:54;2.72;;;2.53;;
10134;SDS011;5107;48.850;8.924;2022-08-25T15:10:39;2.90;;;2.70;;
10134;SDS011;5107;48.850;8.924;2022-08-25T15:13:07;2.83;;;2.63;;
10134;SDS011;5107;48.850;8.924;2022-08-25T15:15:36;3.28;;;3.08;;
10134;SDS011;5107;48.850;8.924;2022-08-25T15:18:08;3.42;;;3.13;;
10134;SDS011;5107;48.850;8.924;2022-08-25T15:20:35;3.10;;;2.90;;
10134;SDS011;5107;48.850;8.924;2022-08-25T15:23:04;3.20;;;3.00;;
10134;SDS011;5107;48.850;8.924;2022-08-25T15:25:32;3.50;;;3.20;;
10134;SDS011;5107;48.850;8.924;2022-08-25T15:28:02;4.13;;;3.20;;
10134;SDS011;5107;48.850;8.924;2022-08-25T15:30:29;3.53;;;3.22;;
10134;SDS011;5107;48.850;8.924;2022-08-25T15:32:56;2.90;;;2.70;;
10134;SDS011;5107;48.850;8.924;2022-08-25T15:35:24;3.15;;;2.85;;
10134;SDS011;5107;48.850;8.924;2022-08-25T15:37:51;3.50;;;3.20;;
10134;SDS011;5107;48.850;8.924;2022-08-25T15:40:20;3.20;;;2.90;;
10134;SDS011;5107;48.850;8.924;2022-08-25T15:42:47;3.40;;;3.10;;
10134;SDS011;5107;48.850;8.924;2022-08-25T15:45:14;3.00;;;2.80;;
10134;SDS011;5107;48.850;8.924;2022-08-25T15:47:43;3.33;;;3.05;;
10134;SDS011;5107;48.850;8.924;2022-08-25T15:50:12;3.45;;;3.15;;
10134;SDS011;5107;48.850;8.924;2022-08-25T15:52:41;3.08;;;2.85;;